sensor_id;sensor_type;location;lat;lon;timestamp;temperature;humidity
8008;DHT22;4049;49.468;11.200;2023-06-14T00:01:02;15.70;54.30
8008;DHT22;4049;49.468;11.200;2023-06-14T00:03:31;15.70;54.50
8008;DHT22;4049;49.468;11.200;2023-06-14T00:05:58;15.80;54.70
8008;DHT22;4049;49.468;11.200;2023-06-14T00:08:25;15.80;54.70
8008;DHT22;4049;49.468;11.200;2023-06-14T00:10:52;15.80;55.20
8008;DHT22;4049;49.468;11.200;2023-06-14T00:13:20;15.80;55.40
8008;DHT22;4049;49.468;11.200;2023-06-14T00:15:47;15.80;55.50
8008;DHT22;4049;49.468;11.200;2023-06-14T00:18:14;15.70;56.30
8008;DHT22;4049;49.468;11.200;2023-06-14T00:20:42;15.80;56.20
8008;DHT22;4049;49.468;11.200;2023-06-14T00:23:09;15.70;56.60
8008;DHT22;4049;49.468;11.200;2023-06-14T00:25:35;15.70;56.30
8008;DHT22;4049;49.468;11.200;2023-06-14T00:28:03;15.80;56.50
8008;DHT22;4049;49.468;11.200;2023-06-14T00:30:31;15.70;56.50
8008;DHT22;4049;49.468;11.200;2023-06-14T00:32:58;15.70;57.30
8008;DHT22;4049;49.468;11.200;2023-06-14T00:35:25;15.70;57.50
8008;DHT22;4049;49.468;11.200;2023-06-14T00:37:52;15.70;57.50
8008;DHT22;4049;49.468;11.200;2023-06-14T00:40:20;15.70;57.60
8008;DHT22;4049;49.468;11.200;2023-06-14T00:42:47;15.70;57.90
8008;DHT22;4049;49.468;11.200;2023-06-14T00:45:14;15.60;58.80
8008;DHT22;4049;49.468;11.200;2023-06-14T00:47:43;15.60;58.40
8008;DHT22;4049;49.468;11.200;2023-06-14T00:50:12;15.60;58.60
8008;DHT22;4049;49.468;11.200;2023-06-14T00:52:39;15.60;59.20
8008;DHT22;4049;49.468;11.200;2023-06-14T00:55:07;15.50;59.60
8008;DHT22;4049;49.468;11.200;2023-06-14T00:57:34;15.50;61.20
8008;DHT22;4049;49.468;11.200;2023-06-14T01:00:04;15.50;61.00
8008;DHT22;4049;49.468;11.200;2023-06-14T01:02:34;15.40;62.60
8008;DHT22;4049;49.468;11.200;2023-06-14T01:05:03;15.40;62.30
8008;DHT22;4049;49.468;11.200;2023-06-14T01:07:45;15.40;63.20
8008;DHT22;4049;49.468;11.200;2023-06-14T01:10:27;15.40;63.50
8008;DHT22;4049;49.468;11.200;2023-06-14T01:13:02;15.30;64.70
8008;DHT22;4049;49.468;11.200;2023-06-14T01:15:31;15.30;65.20
8008;DHT22;4049;49.468;11.200;2023-06-14T01:17:59;15.30;65.90
8008;DHT22;4049;49.468;11.200;2023-06-14T01:20:31;15.30;65.10
8008;DHT22;4049;49.468;11.200;2023-06-14T01:23:03;15.30;67.00
8008;DHT22;4049;49.468;11.200;2023-06-14T01:25:30;15.20;67.20
8008;DHT22;4049;49.468;11.200;2023-06-14T01:27:59;15.20;67.20
8008;DHT22;4049;49.468;11.200;2023-06-14T01:30:27;15.20;67.30
8008;DHT22;4049;49.468;11.200;2023-06-14T01:32:54;15.20;68.00
8008;DHT22;4049;49.468;11.200;2023-06-14T01:35:22;15.20;68.50
8008;DHT22;4049;49.468;11.200;2023-06-14T01:37:50;15.20;68.90
8008;DHT22;4049;49.468;11.200;2023-06-14T01:40:19;15.10;69.00
8008;DHT22;4049;49.468;11.200;2023-06-14T01:42:48;15.10;69.30
8008;DHT22;4049;49.468;11.200;2023-06-14T01:45:16;15.10;69.80
8008;DHT22;4049;49.468;11.200;2023-06-14T01:47:44;15.10;70.00
8008;DHT22;4049;49.468;11.200;2023-06-14T01:50:11;15.10;70.80
8008;DHT22;4049;49.468;11.200;2023-06-14T01:52:38;15.00;71.30
8008;DHT22;4049;49.468;11.200;2023-06-14T01:55:06;15.00;71.90
8008;DHT22;4049;49.468;11.200;2023-06-14T01:57:34;15.00;72.30
8008;DHT22;4049;49.468;11.200;2023-06-14T02:00:01;15.00;72.80
8008;DHT22;4049;49.468;11.200;2023-06-14T02:02:29;14.90;73.90
8008;DHT22;4049;49.468;11.200;2023-06-14T02:04:56;14.90;74.80
8008;DHT22;4049;49.468;11.200;2023-06-14T02:07:23;14.80;74.20
8008;DHT22;4049;49.468;11.200;2023-06-14T02:09:50;14.80;74.00
8008;DHT22;4049;49.468;11.200;2023-06-14T02:12:17;14.80;75.60
8008;DHT22;4049;49.468;11.200;2023-06-14T02:14:45;14.80;75.30
8008;DHT22;4049;49.468;11.200;2023-06-14T02:17:12;14.80;75.90
8008;DHT22;4049;49.468;11.200;2023-06-14T02:19:39;14.80;75.20
8008;DHT22;4049;49.468;11.200;2023-06-14T02:22:06;14.70;76.70
8008;DHT22;4049;49.468;11.200;2023-06-14T02:24:33;14.70;78.70
8008;DHT22;4049;49.468;11.200;2023-06-14T02:27:01;14.60;79.00
8008;DHT22;4049;49.468;11.200;2023-06-14T02:29:28;14.60;79.20
8008;DHT22;4049;49.468;11.200;2023-06-14T02:31:56;14.60;80.50
8008;DHT22;4049;49.468;11.200;2023-06-14T02:34:23;14.50;80.90
8008;DHT22;4049;49.468;11.200;2023-06-14T02:36:50;14.50;81.90
8008;DHT22;4049;49.468;11.200;2023-06-14T02:39:18;14.40;83.70
8008;DHT22;4049;49.468;11.200;2023-06-14T02:41:46;14.40;85.30
8008;DHT22;4049;49.468;11.200;2023-06-14T02:44:13;14.40;85.60
8008;DHT22;4049;49.468;11.200;2023-06-14T02:46:40;14.30;86.10
8008;DHT22;4049;49.468;11.200;2023-06-14T02:49:10;14.30;87.20
8008;DHT22;4049;49.468;11.200;2023-06-14T02:51:37;14.30;87.90
8008;DHT22;4049;49.468;11.200;2023-06-14T02:54:04;14.20;87.60
8008;DHT22;4049;49.468;11.200;2023-06-14T02:56:31;14.20;89.20
8008;DHT22;4049;49.468;11.200;2023-06-14T02:58:57;14.10;90.30
8008;DHT22;4049;49.468;11.200;2023-06-14T03:01:25;14.10;90.30
8008;DHT22;4049;49.468;11.200;2023-06-14T03:03:59;14.10;90.90
8008;DHT22;4049;49.468;11.200;2023-06-14T03:06:27;14.10;91.70
8008;DHT22;4049;49.468;11.200;2023-06-14T03:08:55;14.00;92.10
8008;DHT22;4049;49.468;11.200;2023-06-14T03:11:24;14.00;92.10
8008;DHT22;4049;49.468;11.200;2023-06-14T03:13:51;13.90;92.60
8008;DHT22;4049;49.468;11.200;2023-06-14T03:16:18;13.90;93.10
8008;DHT22;4049;49.468;11.200;2023-06-14T03:18:48;13.90;93.60
8008;DHT22;4049;49.468;11.200;2023-06-14T03:21:15;13.90;93.10
8008;DHT22;4049;49.468;11.200;2023-06-14T03:23:43;13.90;93.80
8008;DHT22;4049;49.468;11.200;2023-06-14T03:26:10;13.90;94.60
8008;DHT22;4049;49.468;11.200;2023-06-14T03:28:40;13.80;94.80
8008;DHT22;4049;49.468;11.200;2023-06-14T03:31:07;13.80;94.60
8008;DHT22;4049;49.468;11.200;2023-06-14T03:33:34;13.80;94.90
8008;DHT22;4049;49.468;11.200;2023-06-14T03:36:01;13.80;95.10
8008;DHT22;4049;49.468;11.200;2023-06-14T03:38:28;13.80;95.40
8008;DHT22;4049;49.468;11.200;2023-06-14T03:40:57;13.80;95.80
8008;DHT22;4049;49.468;11.200;2023-06-14T03:43:23;13.80;96.30
8008;DHT22;4049;49.468;11.200;2023-06-14T03:45:51;13.70;97.00
8008;DHT22;4049;49.468;11.200;2023-06-14T03:48:18;13.70;97.70
8008;DHT22;4049;49.468;11.200;2023-06-14T03:50:44;13.70;97.80
8008;DHT22;4049;49.468;11.200;2023-06-14T03:53:11;13.70;98.50
8008;DHT22;4049;49.468;11.200;2023-06-14T03:55:38;13.70;98.70
8008;DHT22;4049;49.468;11.200;2023-06-14T03:58:06;13.70;99.20
8008;DHT22;4049;49.468;11.200;2023-06-14T04:00:33;13.70;99.60
8008;DHT22;4049;49.468;11.200;2023-06-14T04:03:01;13.70;99.80
8008;DHT22;4049;49.468;11.200;2023-06-14T04:05:30;13.70;99.70
8008;DHT22;4049;49.468;11.200;2023-06-14T04:07:56;13.80;99.80
8008;DHT22;4049;49.468;11.200;2023-06-14T04:10:26;13.80;99.90
8008;DHT22;4049;49.468;11.200;2023-06-14T04:12:53;13.80;99.90
8008;DHT22;4049;49.468;11.200;2023-06-14T04:15:21;13.70;99.90
8008;DHT22;4049;49.468;11.200;2023-06-14T04:17:48;13.70;99.90
8008;DHT22;4049;49.468;11.200;2023-06-14T04:20:15;13.70;99.90
8008;DHT22;4049;49.468;11.200;2023-06-14T04:22:42;13.70;99.90
8008;DHT22;4049;49.468;11.200;2023-06-14T04:25:09;13.80;99.90
8008;DHT22;4049;49.468;11.200;2023-06-14T04:27:37;13.80;99.90
8008;DHT22;4049;49.468;11.200;2023-06-14T04:30:06;13.80;99.90
8008;DHT22;4049;49.468;11.200;2023-06-14T04:32:35;13.80;99.90
8008;DHT22;4049;49.468;11.200;2023-06-14T04:35:05;13.80;99.90
8008;DHT22;4049;49.468;11.200;2023-06-14T04:37:32;13.80;99.90
8008;DHT22;4049;49.468;11.200;2023-06-14T04:39:59;13.80;99.90
8008;DHT22;4049;49.468;11.200;2023-06-14T04:42:26;13.80;99.90
8008;DHT22;4049;49.468;11.200;2023-06-14T04:44:57;13.80;99.90
8008;DHT22;4049;49.468;11.200;2023-06-14T04:47:24;13.80;99.90
8008;DHT22;4049;49.468;11.200;2023-06-14T04:49:56;13.80;99.90
8008;DHT22;4049;49.468;11.200;2023-06-14T04:52:23;13.90;99.90
8008;DHT22;4049;49.468;11.200;2023-06-14T04:54:51;13.90;99.90
8008;DHT22;4049;49.468;11.200;2023-06-14T04:57:19;13.90;99.90
8008;DHT22;4049;49.468;11.200;2023-06-14T04:59:47;13.90;99.90
8008;DHT22;4049;49.468;11.200;2023-06-14T05:02:17;14.00;99.90
8008;DHT22;4049;49.468;11.200;2023-06-14T05:04:44;14.00;99.90
8008;DHT22;4049;49.468;11.200;2023-06-14T05:07:14;14.00;99.90
8008;DHT22;4049;49.468;11.200;2023-06-14T05:09:41;14.00;99.90
8008;DHT22;4049;49.468;11.200;2023-06-14T05:12:08;14.00;99.90
8008;DHT22;4049;49.468;11.200;2023-06-14T05:14:35;14.00;99.90
8008;DHT22;4049;49.468;11.200;2023-06-14T05:17:02;14.00;99.90
8008;DHT22;4049;49.468;11.200;2023-06-14T05:19:29;14.10;99.90
8008;DHT22;4049;49.468;11.200;2023-06-14T05:21:55;14.10;99.90
8008;DHT22;4049;49.468;11.200;2023-06-14T05:24:24;14.10;99.90
8008;DHT22;4049;49.468;11.200;2023-06-14T05:26:50;14.10;99.90
8008;DHT22;4049;49.468;11.200;2023-06-14T05:29:17;14.20;99.90
8008;DHT22;4049;49.468;11.200;2023-06-14T05:31:44;14.20;99.90
8008;DHT22;4049;49.468;11.200;2023-06-14T05:34:11;14.20;99.90
8008;DHT22;4049;49.468;11.200;2023-06-14T05:36:38;14.30;99.90
8008;DHT22;4049;49.468;11.200;2023-06-14T05:39:05;14.40;99.90
8008;DHT22;4049;49.468;11.200;2023-06-14T05:41:33;14.50;99.90
8008;DHT22;4049;49.468;11.200;2023-06-14T05:44:01;14.60;99.90
8008;DHT22;4049;49.468;11.200;2023-06-14T05:46:28;14.70;99.90
8008;DHT22;4049;49.468;11.200;2023-06-14T05:48:55;14.80;99.90
8008;DHT22;4049;49.468;11.200;2023-06-14T05:51:23;14.90;99.90
8008;DHT22;4049;49.468;11.200;2023-06-14T05:53:50;15.00;99.90
8008;DHT22;4049;49.468;11.200;2023-06-14T05:56:18;15.20;99.90
8008;DHT22;4049;49.468;11.200;2023-06-14T05:58:46;15.30;99.90
8008;DHT22;4049;49.468;11.200;2023-06-14T06:01:13;15.40;99.90
8008;DHT22;4049;49.468;11.200;2023-06-14T06:03:41;15.60;99.90
8008;DHT22;4049;49.468;11.200;2023-06-14T06:06:11;15.70;99.90
8008;DHT22;4049;49.468;11.200;2023-06-14T06:08:38;15.80;99.90
8008;DHT22;4049;49.468;11.200;2023-06-14T06:11:06;16.00;99.90
8008;DHT22;4049;49.468;11.200;2023-06-14T06:13:32;16.10;99.90
8008;DHT22;4049;49.468;11.200;2023-06-14T06:16:02;16.20;99.90
8008;DHT22;4049;49.468;11.200;2023-06-14T06:18:29;16.40;99.90
8008;DHT22;4049;49.468;11.200;2023-06-14T06:20:55;16.50;99.90
8008;DHT22;4049;49.468;11.200;2023-06-14T06:23:22;16.70;99.90
8008;DHT22;4049;49.468;11.200;2023-06-14T06:25:50;16.80;99.90
8008;DHT22;4049;49.468;11.200;2023-06-14T06:28:17;16.90;99.90
8008;DHT22;4049;49.468;11.200;2023-06-14T06:30:44;17.10;99.90
8008;DHT22;4049;49.468;11.200;2023-06-14T06:33:12;17.20;99.90
8008;DHT22;4049;49.468;11.200;2023-06-14T06:35:39;17.40;99.90
8008;DHT22;4049;49.468;11.200;2023-06-14T06:38:06;17.50;99.90
8008;DHT22;4049;49.468;11.200;2023-06-14T06:40:34;17.50;99.90
8008;DHT22;4049;49.468;11.200;2023-06-14T06:43:01;17.60;99.90
8008;DHT22;4049;49.468;11.200;2023-06-14T06:45:28;17.70;99.90
8008;DHT22;4049;49.468;11.200;2023-06-14T06:47:56;17.80;99.90
8008;DHT22;4049;49.468;11.200;2023-06-14T06:50:24;17.90;99.90
8008;DHT22;4049;49.468;11.200;2023-06-14T06:52:51;18.00;99.90
8008;DHT22;4049;49.468;11.200;2023-06-14T06:55:21;18.00;99.90
8008;DHT22;4049;49.468;11.200;2023-06-14T06:57:48;18.10;99.90
8008;DHT22;4049;49.468;11.200;2023-06-14T07:00:16;18.10;99.90
8008;DHT22;4049;49.468;11.200;2023-06-14T07:02:43;18.10;99.80
8008;DHT22;4049;49.468;11.200;2023-06-14T07:05:10;18.20;99.40
8008;DHT22;4049;49.468;11.200;2023-06-14T07:07:38;18.20;99.10
8008;DHT22;4049;49.468;11.200;2023-06-14T07:10:05;18.30;99.90
8008;DHT22;4049;49.468;11.200;2023-06-14T07:12:33;18.40;98.60
8008;DHT22;4049;49.468;11.200;2023-06-14T07:15:05;18.50;98.40
8008;DHT22;4049;49.468;11.200;2023-06-14T07:17:33;18.60;97.40
8008;DHT22;4049;49.468;11.200;2023-06-14T07:20:02;18.60;96.30
8008;DHT22;4049;49.468;11.200;2023-06-14T07:22:39;18.80;96.20
8008;DHT22;4049;49.468;11.200;2023-06-14T07:25:08;18.90;95.60
8008;DHT22;4049;49.468;11.200;2023-06-14T07:27:35;19.00;94.90
8008;DHT22;4049;49.468;11.200;2023-06-14T07:30:02;19.10;94.50
8008;DHT22;4049;49.468;11.200;2023-06-14T07:32:28;19.20;93.80
8008;DHT22;4049;49.468;11.200;2023-06-14T07:34:55;19.20;92.50
8008;DHT22;4049;49.468;11.200;2023-06-14T07:37:22;19.30;92.50
8008;DHT22;4049;49.468;11.200;2023-06-14T07:39:50;19.40;91.30
8008;DHT22;4049;49.468;11.200;2023-06-14T07:42:17;19.50;91.50
8008;DHT22;4049;49.468;11.200;2023-06-14T07:44:44;19.60;91.20
8008;DHT22;4049;49.468;11.200;2023-06-14T07:47:11;19.70;90.40
8008;DHT22;4049;49.468;11.200;2023-06-14T07:49:37;19.80;89.40
8008;DHT22;4049;49.468;11.200;2023-06-14T07:52:05;19.90;88.00
8008;DHT22;4049;49.468;11.200;2023-06-14T07:54:32;20.00;86.20
8008;DHT22;4049;49.468;11.200;2023-06-14T07:57:00;20.10;84.30
8008;DHT22;4049;49.468;11.200;2023-06-14T07:59:28;20.20;81.10
8008;DHT22;4049;49.468;11.200;2023-06-14T08:01:55;20.20;81.20
8008;DHT22;4049;49.468;11.200;2023-06-14T08:04:21;20.30;80.10
8008;DHT22;4049;49.468;11.200;2023-06-14T08:06:49;20.40;77.90
8008;DHT22;4049;49.468;11.200;2023-06-14T08:09:16;20.50;77.20
8008;DHT22;4049;49.468;11.200;2023-06-14T08:11:43;20.60;76.60
8008;DHT22;4049;49.468;11.200;2023-06-14T08:14:11;20.70;75.60
8008;DHT22;4049;49.468;11.200;2023-06-14T08:16:38;20.90;74.60
8008;DHT22;4049;49.468;11.200;2023-06-14T08:19:05;21.00;72.90
8008;DHT22;4049;49.468;11.200;2023-06-14T08:21:32;21.10;70.70
8008;DHT22;4049;49.468;11.200;2023-06-14T08:23:59;21.20;68.80
8008;DHT22;4049;49.468;11.200;2023-06-14T08:26:26;21.30;68.20
8008;DHT22;4049;49.468;11.200;2023-06-14T08:28:54;21.40;67.30
8008;DHT22;4049;49.468;11.200;2023-06-14T08:31:23;21.50;67.10
8008;DHT22;4049;49.468;11.200;2023-06-14T08:33:50;21.60;64.70
8008;DHT22;4049;49.468;11.200;2023-06-14T08:36:17;21.80;63.80
8008;DHT22;4049;49.468;11.200;2023-06-14T08:38:44;21.90;62.60
8008;DHT22;4049;49.468;11.200;2023-06-14T08:41:12;22.00;62.30
8008;DHT22;4049;49.468;11.200;2023-06-14T08:43:40;22.10;61.90
8008;DHT22;4049;49.468;11.200;2023-06-14T08:46:07;22.20;61.30
8008;DHT22;4049;49.468;11.200;2023-06-14T08:48:39;22.30;59.70
8008;DHT22;4049;49.468;11.200;2023-06-14T08:51:08;22.30;59.50
8008;DHT22;4049;49.468;11.200;2023-06-14T08:53:36;22.30;59.40
8008;DHT22;4049;49.468;11.200;2023-06-14T08:56:08;22.40;59.60
8008;DHT22;4049;49.468;11.200;2023-06-14T08:58:40;22.50;58.50
8008;DHT22;4049;49.468;11.200;2023-06-14T09:01:09;22.50;58.30
8008;DHT22;4049;49.468;11.200;2023-06-14T09:03:39;22.60;57.20
8008;DHT22;4049;49.468;11.200;2023-06-14T09:06:06;22.70;56.40
8008;DHT22;4049;49.468;11.200;2023-06-14T09:08:34;22.80;58.00
8008;DHT22;4049;49.468;11.200;2023-06-14T09:11:01;22.90;56.30
8008;DHT22;4049;49.468;11.200;2023-06-14T09:13:28;23.00;54.00
8008;DHT22;4049;49.468;11.200;2023-06-14T09:15:55;23.10;55.00
8008;DHT22;4049;49.468;11.200;2023-06-14T09:18:22;23.20;55.20
8008;DHT22;4049;49.468;11.200;2023-06-14T09:21:01;23.30;54.00
8008;DHT22;4049;49.468;11.200;2023-06-14T09:23:28;23.50;53.10
8008;DHT22;4049;49.468;11.200;2023-06-14T09:25:55;23.60;54.70
8008;DHT22;4049;49.468;11.200;2023-06-14T09:28:27;23.70;52.50
8008;DHT22;4049;49.468;11.200;2023-06-14T09:30:54;23.90;52.40
8008;DHT22;4049;49.468;11.200;2023-06-14T09:33:21;23.90;51.70
8008;DHT22;4049;49.468;11.200;2023-06-14T09:35:51;24.00;51.90
8008;DHT22;4049;49.468;11.200;2023-06-14T09:38:19;24.20;51.30
8008;DHT22;4049;49.468;11.200;2023-06-14T09:40:46;24.30;50.20
8008;DHT22;4049;49.468;11.200;2023-06-14T09:43:13;24.30;48.20
8008;DHT22;4049;49.468;11.200;2023-06-14T09:45:40;24.10;48.50
8008;DHT22;4049;49.468;11.200;2023-06-14T09:48:14;24.10;49.30
8008;DHT22;4049;49.468;11.200;2023-06-14T09:50:45;24.20;49.00
8008;DHT22;4049;49.468;11.200;2023-06-14T09:53:13;24.10;48.90
8008;DHT22;4049;49.468;11.200;2023-06-14T09:55:42;23.90;48.20
8008;DHT22;4049;49.468;11.200;2023-06-14T09:58:10;23.80;49.30
8008;DHT22;4049;49.468;11.200;2023-06-14T10:00:39;23.60;49.50
8008;DHT22;4049;49.468;11.200;2023-06-14T10:03:12;23.50;49.90
8008;DHT22;4049;49.468;11.200;2023-06-14T10:05:42;23.40;50.00
8008;DHT22;4049;49.468;11.200;2023-06-14T10:08:13;23.30;49.90
8008;DHT22;4049;49.468;11.200;2023-06-14T10:10:43;23.40;50.20
8008;DHT22;4049;49.468;11.200;2023-06-14T10:13:10;23.60;49.60
8008;DHT22;4049;49.468;11.200;2023-06-14T10:15:43;23.60;48.50
8008;DHT22;4049;49.468;11.200;2023-06-14T10:18:19;23.60;48.40
8008;DHT22;4049;49.468;11.200;2023-06-14T10:20:57;23.60;48.40
8008;DHT22;4049;49.468;11.200;2023-06-14T10:23:26;23.60;49.10
8008;DHT22;4049;49.468;11.200;2023-06-14T10:25:57;23.80;49.50
8008;DHT22;4049;49.468;11.200;2023-06-14T10:28:25;24.00;48.70
8008;DHT22;4049;49.468;11.200;2023-06-14T10:31:05;24.00;47.10
8008;DHT22;4049;49.468;11.200;2023-06-14T10:33:33;24.00;46.10
8008;DHT22;4049;49.468;11.200;2023-06-14T10:36:11;23.90;46.40
8008;DHT22;4049;49.468;11.200;2023-06-14T10:38:57;23.90;43.00
8008;DHT22;4049;49.468;11.200;2023-06-14T10:41:26;24.10;44.00
8008;DHT22;4049;49.468;11.200;2023-06-14T10:46:58;24.40;43.60
8008;DHT22;4049;49.468;11.200;2023-06-14T10:49:41;24.70;42.30
8008;DHT22;4049;49.468;11.200;2023-06-14T10:52:10;24.60;41.00
8008;DHT22;4049;49.468;11.200;2023-06-14T10:54:56;24.50;41.90
8008;DHT22;4049;49.468;11.200;2023-06-14T10:57:24;24.40;42.00
8008;DHT22;4049;49.468;11.200;2023-06-14T10:59:51;24.30;42.40
8008;DHT22;4049;49.468;11.200;2023-06-14T11:02:37;24.20;42.50
8008;DHT22;4049;49.468;11.200;2023-06-14T11:05:14;24.20;43.70
8008;DHT22;4049;49.468;11.200;2023-06-14T11:07:52;24.30;44.60
8008;DHT22;4049;49.468;11.200;2023-06-14T11:10:29;24.30;45.20
8008;DHT22;4049;49.468;11.200;2023-06-14T11:13:00;24.30;45.50
8008;DHT22;4049;49.468;11.200;2023-06-14T11:15:28;24.30;45.80
8008;DHT22;4049;49.468;11.200;2023-06-14T11:17:56;24.50;45.90
8008;DHT22;4049;49.468;11.200;2023-06-14T11:20:25;24.50;44.50
8008;DHT22;4049;49.468;11.200;2023-06-14T11:22:53;24.50;44.70
8008;DHT22;4049;49.468;11.200;2023-06-14T11:25:20;24.50;43.30
8008;DHT22;4049;49.468;11.200;2023-06-14T11:27:48;24.50;43.90
8008;DHT22;4049;49.468;11.200;2023-06-14T11:30:17;24.40;43.40
8008;DHT22;4049;49.468;11.200;2023-06-14T11:32:46;24.30;43.90
8008;DHT22;4049;49.468;11.200;2023-06-14T11:35:15;24.30;44.20
8008;DHT22;4049;49.468;11.200;2023-06-14T11:37:42;24.20;44.00
8008;DHT22;4049;49.468;11.200;2023-06-14T11:40:11;24.40;44.90
8008;DHT22;4049;49.468;11.200;2023-06-14T11:42:39;24.50;44.50
8008;DHT22;4049;49.468;11.200;2023-06-14T11:45:09;24.60;43.10
8008;DHT22;4049;49.468;11.200;2023-06-14T11:47:39;24.70;42.40
8008;DHT22;4049;49.468;11.200;2023-06-14T11:50:08;24.70;41.80
8008;DHT22;4049;49.468;11.200;2023-06-14T11:52:36;24.70;42.50
8008;DHT22;4049;49.468;11.200;2023-06-14T11:55:04;24.90;42.90
8008;DHT22;4049;49.468;11.200;2023-06-14T11:57:34;24.90;42.70
8008;DHT22;4049;49.468;11.200;2023-06-14T12:00:03;25.00;42.60
8008;DHT22;4049;49.468;11.200;2023-06-14T12:02:32;25.00;40.20
8008;DHT22;4049;49.468;11.200;2023-06-14T12:05:04;24.90;40.40
8008;DHT22;4049;49.468;11.200;2023-06-14T12:07:33;25.10;41.40
8008;DHT22;4049;49.468;11.200;2023-06-14T12:10:05;25.30;41.70
8008;DHT22;4049;49.468;11.200;2023-06-14T12:12:35;25.70;39.20
8008;DHT22;4049;49.468;11.200;2023-06-14T12:15:03;25.90;38.60
8008;DHT22;4049;49.468;11.200;2023-06-14T12:17:32;26.20;39.00
8008;DHT22;4049;49.468;11.200;2023-06-14T12:20:05;26.40;38.50
8008;DHT22;4049;49.468;11.200;2023-06-14T12:22:35;26.70;37.50
8008;DHT22;4049;49.468;11.200;2023-06-14T12:25:02;27.00;34.90
8008;DHT22;4049;49.468;11.200;2023-06-14T12:27:29;27.10;36.90
8008;DHT22;4049;49.468;11.200;2023-06-14T12:30:00;27.30;36.50
8008;DHT22;4049;49.468;11.200;2023-06-14T12:32:28;27.20;36.40
8008;DHT22;4049;49.468;11.200;2023-06-14T12:34:55;27.20;37.30
8008;DHT22;4049;49.468;11.200;2023-06-14T12:37:23;27.10;36.70
8008;DHT22;4049;49.468;11.200;2023-06-14T12:39:50;26.80;37.30
8008;DHT22;4049;49.468;11.200;2023-06-14T12:42:17;26.60;37.30
8008;DHT22;4049;49.468;11.200;2023-06-14T12:44:44;26.50;37.60
8008;DHT22;4049;49.468;11.200;2023-06-14T12:47:11;26.30;38.60
8008;DHT22;4049;49.468;11.200;2023-06-14T12:49:40;26.10;39.00
8008;DHT22;4049;49.468;11.200;2023-06-14T12:52:09;26.00;39.50
8008;DHT22;4049;49.468;11.200;2023-06-14T12:54:37;25.80;39.50
8008;DHT22;4049;49.468;11.200;2023-06-14T12:57:05;25.90;39.20
8008;DHT22;4049;49.468;11.200;2023-06-14T12:59:32;25.80;38.90
8008;DHT22;4049;49.468;11.200;2023-06-14T13:02:10;25.70;39.30
8008;DHT22;4049;49.468;11.200;2023-06-14T13:04:37;25.60;39.40
8008;DHT22;4049;49.468;11.200;2023-06-14T13:07:04;25.50;39.40
8008;DHT22;4049;49.468;11.200;2023-06-14T13:09:32;25.30;39.90
8008;DHT22;4049;49.468;11.200;2023-06-14T13:12:00;25.30;39.80
8008;DHT22;4049;49.468;11.200;2023-06-14T13:14:27;25.40;39.80
8008;DHT22;4049;49.468;11.200;2023-06-14T13:16:54;25.50;39.70
8008;DHT22;4049;49.468;11.200;2023-06-14T13:19:21;25.40;39.30
8008;DHT22;4049;49.468;11.200;2023-06-14T13:21:48;25.70;40.20
8008;DHT22;4049;49.468;11.200;2023-06-14T13:24:15;26.20;38.80
8008;DHT22;4049;49.468;11.200;2023-06-14T13:26:42;26.70;38.50
8008;DHT22;4049;49.468;11.200;2023-06-14T13:29:11;27.10;37.70
8008;DHT22;4049;49.468;11.200;2023-06-14T13:31:38;27.60;37.90
8008;DHT22;4049;49.468;11.200;2023-06-14T13:34:05;28.10;37.20
8008;DHT22;4049;49.468;11.200;2023-06-14T13:36:32;28.10;36.40
8008;DHT22;4049;49.468;11.200;2023-06-14T13:38:59;28.20;36.50
8008;DHT22;4049;49.468;11.200;2023-06-14T13:41:27;28.50;36.10
8008;DHT22;4049;49.468;11.200;2023-06-14T13:43:57;28.80;35.90
8008;DHT22;4049;49.468;11.200;2023-06-14T13:46:26;28.90;35.80
8008;DHT22;4049;49.468;11.200;2023-06-14T13:48:53;29.00;34.10
8008;DHT22;4049;49.468;11.200;2023-06-14T13:51:19;29.10;35.60
8008;DHT22;4049;49.468;11.200;2023-06-14T13:53:47;29.10;35.00
8008;DHT22;4049;49.468;11.200;2023-06-14T13:56:14;29.10;33.90
8008;DHT22;4049;49.468;11.200;2023-06-14T13:58:41;29.00;34.70
8008;DHT22;4049;49.468;11.200;2023-06-14T14:01:08;28.80;35.00
8008;DHT22;4049;49.468;11.200;2023-06-14T14:03:37;28.70;34.60
8008;DHT22;4049;49.468;11.200;2023-06-14T14:06:04;28.70;34.30
8008;DHT22;4049;49.468;11.200;2023-06-14T14:08:31;28.40;34.00
8008;DHT22;4049;49.468;11.200;2023-06-14T14:10:58;28.20;33.50
8008;DHT22;4049;49.468;11.200;2023-06-14T14:13:25;28.10;33.90
8008;DHT22;4049;49.468;11.200;2023-06-14T14:15:52;28.20;34.80
8008;DHT22;4049;49.468;11.200;2023-06-14T14:18:19;28.20;35.00
8008;DHT22;4049;49.468;11.200;2023-06-14T14:20:48;27.90;35.10
8008;DHT22;4049;49.468;11.200;2023-06-14T14:23:15;27.80;34.90
8008;DHT22;4049;49.468;11.200;2023-06-14T14:25:42;27.50;35.80
8008;DHT22;4049;49.468;11.200;2023-06-14T14:28:09;27.20;35.80
8008;DHT22;4049;49.468;11.200;2023-06-14T14:30:36;27.00;36.50
8008;DHT22;4049;49.468;11.200;2023-06-14T14:33:05;26.80;36.60
8008;DHT22;4049;49.468;11.200;2023-06-14T14:35:32;26.60;37.10
8008;DHT22;4049;49.468;11.200;2023-06-14T14:38:00;26.40;36.70
8008;DHT22;4049;49.468;11.200;2023-06-14T14:40:28;26.30;36.60
8008;DHT22;4049;49.468;11.200;2023-06-14T14:42:55;26.20;36.80
8008;DHT22;4049;49.468;11.200;2023-06-14T14:45:22;26.10;37.00
8008;DHT22;4049;49.468;11.200;2023-06-14T14:47:49;26.00;37.00
8008;DHT22;4049;49.468;11.200;2023-06-14T14:50:16;25.90;36.50
8008;DHT22;4049;49.468;11.200;2023-06-14T14:52:43;25.80;36.20
8008;DHT22;4049;49.468;11.200;2023-06-14T14:55:12;25.70;36.60
8008;DHT22;4049;49.468;11.200;2023-06-14T14:57:38;25.70;36.20
8008;DHT22;4049;49.468;11.200;2023-06-14T15:00:06;25.60;36.20
8008;DHT22;4049;49.468;11.200;2023-06-14T15:02:33;25.60;37.00
8008;DHT22;4049;49.468;11.200;2023-06-14T15:05:00;25.50;37.00
8008;DHT22;4049;49.468;11.200;2023-06-14T15:07:28;25.50;37.90
8008;DHT22;4049;49.468;11.200;2023-06-14T15:09:55;25.40;39.00
8008;DHT22;4049;49.468;11.200;2023-06-14T15:12:23;25.40;37.60
8008;DHT22;4049;49.468;11.200;2023-06-14T15:14:50;25.30;38.70
8008;DHT22;4049;49.468;11.200;2023-06-14T15:17:17;25.20;38.60
8008;DHT22;4049;49.468;11.200;2023-06-14T15:19:45;25.20;38.70
8008;DHT22;4049;49.468;11.200;2023-06-14T15:22:12;25.30;38.30
8008;DHT22;4049;49.468;11.200;2023-06-14T15:24:40;25.40;38.90
8008;DHT22;4049;49.468;11.200;2023-06-14T15:27:07;25.40;38.70
8008;DHT22;4049;49.468;11.200;2023-06-14T15:29:35;25.40;38.80
8008;DHT22;4049;49.468;11.200;2023-06-14T15:32:03;25.40;38.40
8008;DHT22;4049;49.468;11.200;2023-06-14T15:34:30;25.40;38.50
8008;DHT22;4049;49.468;11.200;2023-06-14T15:36:57;25.40;38.40
8008;DHT22;4049;49.468;11.200;2023-06-14T15:39:24;25.40;37.40
8008;DHT22;4049;49.468;11.200;2023-06-14T15:41:52;25.40;37.70
8008;DHT22;4049;49.468;11.200;2023-06-14T15:44:19;25.40;37.20
8008;DHT22;4049;49.468;11.200;2023-06-14T15:46:47;25.40;37.70
8008;DHT22;4049;49.468;11.200;2023-06-14T15:49:14;25.40;37.70
8008;DHT22;4049;49.468;11.200;2023-06-14T15:51:41;25.40;38.10
8008;DHT22;4049;49.468;11.200;2023-06-14T15:54:08;25.30;38.00